Time;durP1;ratioP1;P1;durP2;ratioP2;P2;SDS_P1;SDS_P2;PMS_P1;PMS_P2;Temp;Humidity;BMP_temperature;BMP_pressure;BME280_temperature;BME280_humidity;BME280_pressure;Samples;Min_cycle;Max_cycle;Signal;HPM_P1;HPM_P2
2021/07/25 00:00:51;;;;;;;;;;;;;;;25.35;57.45;99346.38;2067739;28;19935;-70
2021/07/25 00:01:51;;;;;;;;;;;;;;;25.34;57.61;99348.28;2066591;28;19929;-72
2021/07/25 00:02:52;;;;;;;;;;;;;;;25.35;57.64;99349.13;2068646;28;19921;-71
2021/07/25 00:03:52;;;;;;;;;;;;;;;25.33;57.39;99346.59;2068138;28;19921;-71
2021/07/25 00:04:52;;;;;;;;;;;;;;;25.34;57.46;99344.69;2065645;28;19928;-71
2021/07/25 00:05:53;;;;;;;;;;;;;;;25.35;57.47;99347.22;2066834;28;19924;-70
2021/07/25 00:06:53;;;;;;;;;;;;;;;25.35;57.44;99346.38;2064273;28;20042;-71
2021/07/25 00:07:53;;;;;;;;;;;;;;;25.33;57.51;99349.34;2066458;28;19921;-71
2021/07/25 00:08:54;;;;;;;;;;;;;;;25.34;57.36;99359.31;2068407;28;19964;-70
2021/07/25 00:09:54;;;;;;;;;;;;;;;25.34;57.56;99347.44;2065894;28;19928;-70
2021/07/25 00:10:56;;;;;;;;;;;;;;;25.35;57.47;99351.88;2056934;28;19959;-70
2021/07/25 00:11:56;;;;;;;;;;;;;;;25.34;57.55;99345.53;2064559;28;19928;-70
2021/07/25 00:12:56;;;;;;;;;;;;;;;25.34;57.61;99345.53;2069345;28;19917;-70
2021/07/25 00:13:58;;;;;;;;;;;;;;;25.33;57.58;99349.34;2066899;28;20392;-70
2021/07/25 00:14:58;;;;;;;;;;;;;;;25.33;57.63;99349.34;2067279;28;20084;-70
2021/07/25 00:15:59;;;;;;;;;;;;;;;25.34;57.69;99344.69;2066973;28;20676;-70
2021/07/25 00:16:59;;;;;;;;;;;;;;;25.34;57.56;99350.19;2065877;28;19917;-70
2021/07/25 00:17:59;;;;;;;;;;;;;;;25.33;57.62;99348.47;2068786;28;19924;-71
2021/07/25 00:19:00;;;;;;;;;;;;;;;25.33;57.43;99345.72;2069143;28;20088;-71
2021/07/25 00:20:01;;;;;;;;;;;;;;;25.33;57.63;99342.97;2066195;28;19986;-71
2021/07/25 00:21:02;;;;;;;;;;;;;;;25.33;57.36;99351.22;2061478;28;20370;-71
2021/07/25 00:22:05;;;;;;;;;;;;;;;25.33;57.60;99348.47;2066844;28;19906;-71
2021/07/25 00:23:06;;;;;;;;;;;;;;;25.34;57.52;99341.91;2064789;28;20033;-71
2021/07/25 00:24:07;;;;;;;;;;;;;;;25.33;57.48;99346.59;2074229;28;19970;-71
2021/07/25 00:25:08;;;;;;;;;;;;;;;25.33;57.60;99348.47;2074675;28;20431;-71
2021/07/25 00:26:12;;;;;;;;;;;;;;;25.33;57.43;99349.34;2064542;28;19917;-71
2021/07/25 00:27:12;;;;;;;;;;;;;;;25.33;57.47;99348.47;2067927;28;19917;-71
2021/07/25 00:28:17;;;;;;;;;;;;;;;25.32;57.46;99341.28;2069589;28;19909;-72
2021/07/25 00:29:17;;;;;;;;;;;;;;;25.32;57.55;99341.28;2066475;28;19978;-72
2021/07/25 00:30:18;;;;;;;;;;;;;;;25.32;57.49;99342.13;2065930;28;19974;-72
2021/07/25 00:31:18;;;;;;;;;;;;;;;25.33;57.44;99338.31;2067914;28;19921;-72
2021/07/25 00:32:19;;;;;;;;;;;;;;;25.32;57.54;99344.88;2068413;28;20770;-71
2021/07/25 00:33:19;;;;;;;;;;;;;;;25.33;57.66;99340.19;2064220;28;19921;-71
2021/07/25 00:34:19;;;;;;;;;;;;;;;25.33;57.46;99337.44;2067983;28;20099;-70
2021/07/25 00:35:20;;;;;;;;;;;;;;;25.33;57.50;99342.97;2068401;28;20134;-70
2021/07/25 00:36:20;;;;;;;;;;;;;;;25.33;57.59;99337.44;2067632;28;19917;-70
2021/07/25 00:37:21;;;;;;;;;;;;;;;25.33;57.63;99342.97;2064807;28;20006;-70
2021/07/25 00:38:22;;;;;;;;;;;;;;;25.32;57.33;99333.84;2068065;28;19927;-70
2021/07/25 00:39:22;;;;;;;;;;;;;;;25.33;57.36;99337.44;2069444;28;20596;-70
2021/07/25 00:40:25;;;;;;;;;;;;;;;25.33;57.55;99340.19;2070026;28;20383;-70
2021/07/25 00:41:26;;;;;;;;;;;;;;;25.32;57.19;99338.50;2067872;28;19975;-69
2021/07/25 00:42:35;;;;;;;;;;;;;;;25.32;57.56;99341.28;2068581;28;19920;-69
2021/07/25 00:43:36;;;;;;;;;;;;;;;25.32;57.23;99342.13;2067781;28;19963;-70
2021/07/25 00:44:36;;;;;;;;;;;;;;;25.32;57.34;99341.28;2066551;28;19909;-69
2021/07/25 00:45:37;;;;;;;;;;;;;;;25.31;57.23;99337.66;2066850;28;20037;-69
2021/07/25 00:46:37;;;;;;;;;;;;;;;25.30;57.53;99347.00;2076232;28;20024;-69
2021/07/25 00:47:39;;;;;;;;;;;;;;;25.31;57.36;99334.06;2074356;28;19916;-69
2021/07/25 00:48:39;;;;;;;;;;;;;;;25.32;57.46;99335.75;2067661;28;20031;-69
2021/07/25 00:49:39;;;;;;;;;;;;;;;25.31;57.51;99328.56;2066632;28;19925;-69
2021/07/25 00:50:40;;;;;;;;;;;;;;;25.31;57.53;99328.56;2068471;28;19917;-70
2021/07/25 00:51:40;;;;;;;;;;;;;;;25.30;57.31;99327.69;2068242;28;19920;-70
2021/07/25 00:52:41;;;;;;;;;;;;;;;25.31;57.54;99328.56;2066184;28;19975;-70
2021/07/25 00:53:43;;;;;;;;;;;;;;;25.31;57.26;99328.56;2066846;28;19952;-70
2021/07/25 00:54:43;;;;;;;;;;;;;;;25.32;57.46;99335.75;2065412;28;20304;-70
2021/07/25 00:55:44;;;;;;;;;;;;;;;25.30;57.47;99327.69;2067644;28;20856;-70
2021/07/25 00:56:45;;;;;;;;;;;;;;;25.31;57.50;99328.56;2069421;28;20022;-70
2021/07/25 00:57:45;;;;;;;;;;;;;;;25.31;57.30;99334.06;2068191;28;20462;-70
2021/07/25 00:58:45;;;;;;;;;;;;;;;25.31;57.24;99334.91;2068418;28;19953;-70
2021/07/25 00:59:46;;;;;;;;;;;;;;;25.31;57.34;99328.56;2067737;28;19960;-70
2021/07/25 01:00:46;;;;;;;;;;;;;;;25.32;57.30;99335.75;2067580;28;19971;-70
2021/07/25 01:01:48;;;;;;;;;;;;;;;25.31;57.35;99331.31;2067699;28;19921;-70
2021/07/25 01:02:51;;;;;;;;;;;;;;;25.31;57.24;99334.06;2067736;28;20865;-71
2021/07/25 01:04:04;;;;;;;;;;;;;;;25.31;57.45;99332.16;2066159;28;20015;-70
2021/07/25 01:05:12;;;;;;;;;;;;;;;25.31;57.27;99334.06;2066760;28;19933;-71
2021/07/25 01:06:12;;;;;;;;;;;;;;;25.31;57.41;99334.06;2066744;28;19963;-71
2021/07/25 01:07:16;;;;;;;;;;;;;;;25.30;57.36;99326.84;2066789;28;19920;-70
2021/07/25 01:08:21;;;;;;;;;;;;;;;25.31;57.50;99334.06;2065590;28;19925;-70
2021/07/25 01:09:28;;;;;;;;;;;;;;;25.30;57.46;99337.88;2063439;28;19916;-70
2021/07/25 01:10:30;;;;;;;;;;;;;;;25.30;57.50;99341.47;2066258;28;19921;-71
2021/07/25 01:11:40;;;;;;;;;;;;;;;25.30;57.53;99333.19;2083530;28;19952;-71
2021/07/25 01:12:42;;;;;;;;;;;;;;;25.30;57.41;99335.94;2084592;28;20430;-71
2021/07/25 01:13:45;;;;;;;;;;;;;;;25.30;57.35;99338.72;2089660;28;19955;-70
2021/07/25 01:14:47;;;;;;;;;;;;;;;25.29;57.32;99334.25;2080351;28;19948;-70
2021/07/25 01:15:48;;;;;;;;;;;;;;;25.29;57.51;99337.03;2077257;28;19936;-70
2021/07/25 01:16:49;;;;;;;;;;;;;;;25.30;57.33;99337.88;2075530;28;19960;-70
2021/07/25 01:17:50;;;;;;;;;;;;;;;25.29;57.39;99331.50;2076467;28;19960;-70
2021/07/25 01:18:50;;;;;;;;;;;;;;;25.30;57.50;99332.34;2074419;28;19957;-71
2021/07/25 01:19:50;;;;;;;;;;;;;;;25.29;57.30;99330.66;2067191;28;19968;-71
2021/07/25 01:20:51;;;;;;;;;;;;;;;25.29;57.38;99327.91;2067796;28;19917;-71
2021/07/25 01:21:52;;;;;;;;;;;;;;;25.30;57.31;99337.88;2068713;28;19928;-71
2021/07/25 01:22:54;;;;;;;;;;;;;;;25.29;57.29;99331.50;2067536;28;19971;-71
2021/07/25 01:23:55;;;;;;;;;;;;;;;25.29;57.47;99334.25;2066801;28;20372;-71
2021/07/25 01:24:56;;;;;;;;;;;;;;;25.29;57.42;99327.91;2066058;28;20738;-71
2021/07/25 01:25:58;;;;;;;;;;;;;;;25.29;57.18;99325.16;2064061;28;20417;-71
2021/07/25 01:26:59;;;;;;;;;;;;;;;25.29;57.60;99326.00;2068925;28;19925;-68
2021/07/25 01:28:04;;;;;;;;;;;;;;;25.29;57.22;99327.91;2065437;28;19914;-70
2021/07/25 01:29:04;;;;;;;;;;;;;;;25.29;57.30;99328.75;2067458;28;19921;-70
2021/07/25 01:30:05;;;;;;;;;;;;;;;25.29;57.34;99327.91;2065305;28;19964;-70
2021/07/25 01:31:10;;;;;;;;;;;;;;;25.28;57.28;99329.78;2066458;28;19925;-70
2021/07/25 01:32:11;;;;;;;;;;;;;;;25.28;57.52;99323.44;2068194;28;19917;-71
2021/07/25 01:33:15;;;;;;;;;;;;;;;25.28;57.46;99324.28;2067229;28;20399;-70
2021/07/25 01:34:15;;;;;;;;;;;;;;;25.29;57.50;99327.91;2066926;28;19968;-70
2021/07/25 01:35:15;;;;;;;;;;;;;;;25.28;57.45;99323.44;2066201;28;19964;-70
2021/07/25 01:36:16;;;;;;;;;;;;;;;25.28;57.32;99318.75;2066949;28;19921;-70
2021/07/25 01:37:17;;;;;;;;;;;;;;;25.28;57.48;99318.75;2068315;28;19917;-70
2021/07/25 01:38:17;;;;;;;;;;;;;;;25.29;57.59;99314.13;2067342;28;19925;-70
2021/07/25 01:39:18;;;;;;;;;;;;;;;25.29;57.58;99319.63;2066184;28;19913;-69
2021/07/25 01:40:24;;;;;;;;;;;;;;;25.28;57.23;99317.91;2074496;28;19995;-70
2021/07/25 01:41:24;;;;;;;;;;;;;;;25.29;57.42;99316.88;2074052;28;20023;-70
2021/07/25 01:42:28;;;;;;;;;;;;;;;25.28;57.34;99306.88;2066748;28;20044;-70
2021/07/25 01:43:30;;;;;;;;;;;;;;;25.28;57.11;99315.16;2066737;28;20004;-70
2021/07/25 01:44:31;;;;;;;;;;;;;;;25.28;57.46;99312.41;2067283;28;20006;-70
2021/07/25 01:45:31;;;;;;;;;;;;;;;25.28;57.36;99309.63;2068238;28;19979;-70
2021/07/25 01:46:31;;;;;;;;;;;;;;;25.27;57.25;99310.72;2068485;28;19975;-69
2021/07/25 01:47:32;;;;;;;;;;;;;;;25.28;57.51;99317.91;2065965;28;19920;-70
2021/07/25 01:48:32;;;;;;;;;;;;;;;25.27;57.42;99308.78;2068016;28;20490;-70
2021/07/25 01:49:32;;;;;;;;;;;;;;;25.27;57.19;99313.47;2068287;28;19928;-69
2021/07/25 01:50:33;;;;;;;;;;;;;;;25.28;57.37;99309.63;2065803;28;19918;-69
2021/07/25 01:51:34;;;;;;;;;;;;;;;25.27;57.31;99317.06;2067959;28;19924;-69
2021/07/25 01:52:35;;;;;;;;;;;;;;;25.27;57.32;99305.19;2069726;28;20015;-69
2021/07/25 01:53:36;;;;;;;;;;;;;;;25.27;57.48;99311.56;2066060;28;19921;-70
2021/07/25 01:54:36;;;;;;;;;;;;;;;25.27;57.27;99319.00;2066722;28;19937;-70
2021/07/25 01:55:36;;;;;;;;;;;;;;;25.27;57.50;99317.06;2067561;28;20332;-69
2021/07/25 01:56:37;;;;;;;;;;;;;;;25.27;57.23;99316.22;2067384;28;19943;-69
2021/07/25 01:57:37;;;;;;;;;;;;;;;25.27;57.57;99317.06;2066862;28;20367;-69
2021/07/25 01:58:37;;;;;;;;;;;;;;;25.27;57.41;99324.50;2069829;28;20292;-68
2021/07/25 01:59:37;;;;;;;;;;;;;;;25.28;57.55;99320.66;2069288;28;20012;-69
2021/07/25 02:00:39;;;;;;;;;;;;;;;25.26;57.47;99320.03;2063936;28;19947;-69
2021/07/25 02:01:40;;;;;;;;;;;;;;;25.27;57.39;99321.75;2069017;28;19917;-69
2021/07/25 02:02:40;;;;;;;;;;;;;;;25.27;57.47;99327.25;2067845;28;19925;-69
2021/07/25 02:03:41;;;;;;;;;;;;;;;25.26;57.49;99320.91;2069711;28;19956;-69
2021/07/25 02:04:41;;;;;;;;;;;;;;;25.26;57.50;99326.41;2067204;28;19932;-69
2021/07/25 02:05:41;;;;;;;;;;;;;;;25.26;57.36;99326.41;2067350;28;19921;-70
2021/07/25 02:06:41;;;;;;;;;;;;;;;25.26;57.17;99322.78;2068416;28;20347;-69
2021/07/25 02:07:42;;;;;;;;;;;;;;;25.25;57.28;99319.19;2069387;28;20367;-69
2021/07/25 02:08:42;;;;;;;;;;;;;;;25.24;57.28;99323.84;2067415;28;19917;-69
2021/07/25 02:09:42;;;;;;;;;;;;;;;25.24;57.29;99326.63;2068867;28;20007;-69
2021/07/25 02:10:44;;;;;;;;;;;;;;;25.26;57.36;99320.03;2068748;28;19921;-69
2021/07/25 02:11:44;;;;;;;;;;;;;;;25.26;57.43;99325.53;2067991;28;20354;-69
2021/07/25 02:12:44;;;;;;;;;;;;;;;25.24;57.31;99323.84;2068370;28;19921;-69
2021/07/25 02:13:44;;;;;;;;;;;;;;;25.26;57.54;99325.53;2067558;28;19975;-69
2021/07/25 02:14:45;;;;;;;;;;;;;;;25.25;57.29;99324.69;2070014;28;19921;-69
2021/07/25 02:15:45;;;;;;;;;;;;;;;25.26;57.27;99331.06;2068596;28;19921;-69
2021/07/25 02:16:45;;;;;;;;;;;;;;;25.24;57.37;99328.53;2068538;28;20665;-69
2021/07/25 02:17:46;;;;;;;;;;;;;;;25.24;57.24;99329.38;2068475;28;20657;-69
2021/07/25 02:18:46;;;;;;;;;;;;;;;25.26;57.36;99325.53;2064225;28;19920;-69
2021/07/25 02:19:47;;;;;;;;;;;;;;;25.24;57.33;99329.38;2065914;28;20348;-71
2021/07/25 02:20:48;;;;;;;;;;;;;;;25.24;57.31;99332.13;2069022;28;20354;-69
2021/07/25 02:21:48;;;;;;;;;;;;;;;25.24;57.09;99329.38;2069188;28;19913;-69
2021/07/25 02:22:48;;;;;;;;;;;;;;;25.23;57.34;99316.66;2067324;28;20960;-69
2021/07/25 02:23:49;;;;;;;;;;;;;;;25.23;57.44;99333.19;2070649;28;19963;-69
2021/07/25 02:24:49;;;;;;;;;;;;;;;25.24;57.47;99334.03;2065630;28;19913;-69
2021/07/25 02:25:50;;;;;;;;;;;;;;;25.23;57.49;99322.16;2069034;28;19925;-69
2021/07/25 02:26:50;;;;;;;;;;;;;;;25.23;57.45;99327.69;2067228;28;19922;-69
2021/07/25 02:27:51;;;;;;;;;;;;;;;25.24;57.43;99326.63;2068664;28;19917;-69
2021/07/25 02:28:51;;;;;;;;;;;;;;;25.23;57.30;99322.16;2068552;28;19914;-69
2021/07/25 02:29:51;;;;;;;;;;;;;;;25.23;57.48;99327.69;2075464;28;19920;-69
2021/07/25 02:30:52;;;;;;;;;;;;;;;25.23;57.45;99324.06;2075985;28;19921;-69
2021/07/25 02:31:52;;;;;;;;;;;;;;;25.23;57.30;99326.81;2068661;28;20092;-69
2021/07/25 02:32:52;;;;;;;;;;;;;;;25.23;57.31;99324.94;2062119;28;19971;-69
2021/07/25 02:33:52;;;;;;;;;;;;;;;25.23;57.44;99335.97;2066821;28;19921;-68
2021/07/25 02:34:53;;;;;;;;;;;;;;;25.23;57.31;99322.16;2068698;28;19909;-68
2021/07/25 02:35:54;;;;;;;;;;;;;;;25.23;57.34;99322.16;2068216;28;19967;-69
2021/07/25 02:36:54;;;;;;;;;;;;;;;25.23;57.38;99324.94;2067820;28;19943;-69
2021/07/25 02:37:55;;;;;;;;;;;;;;;25.23;57.41;99324.06;2064946;28;19928;-68
2021/07/25 02:38:56;;;;;;;;;;;;;;;25.23;57.41;99322.16;2070690;28;19946;-69
2021/07/25 02:39:56;;;;;;;;;;;;;;;25.23;57.46;99322.16;2067183;28;20687;-69
2021/07/25 02:40:57;;;;;;;;;;;;;;;25.23;57.48;99321.28;2070718;28;19909;-68
2021/07/25 02:41:57;;;;;;;;;;;;;;;25.22;57.24;99317.69;2069255;28;19920;-68
2021/07/25 02:42:57;;;;;;;;;;;;;;;25.21;57.41;99318.75;2070682;28;19935;-68
2021/07/25 02:43:58;;;;;;;;;;;;;;;25.22;57.47;99320.44;2071024;28;19921;-68
2021/07/25 02:44:58;;;;;;;;;;;;;;;25.22;57.31;99319.59;2069021;28;19921;-68
2021/07/25 02:45:58;;;;;;;;;;;;;;;25.22;57.57;99312.19;2068834;28;19971;-69
2021/07/25 02:46:59;;;;;;;;;;;;;;;25.22;57.34;99320.44;2070186;28;19917;-68
2021/07/25 02:47:59;;;;;;;;;;;;;;;25.22;57.49;99325.97;2066421;28;19913;-69
2021/07/25 02:48:59;;;;;;;;;;;;;;;25.21;57.34;99324.28;2066642;28;19925;-69
2021/07/25 02:50:00;;;;;;;;;;;;;;;25.22;57.33;99325.97;2069486;28;19956;-69
2021/07/25 02:51:00;;;;;;;;;;;;;;;25.22;57.52;99328.72;2069623;28;20099;-69
2021/07/25 02:52:02;;;;;;;;;;;;;;;25.21;57.47;99329.81;2073179;28;19967;-69
2021/07/25 02:53:02;;;;;;;;;;;;;;;25.22;57.24;99325.13;2069547;28;19979;-69
2021/07/25 02:54:02;;;;;;;;;;;;;;;25.21;57.42;99329.81;2069823;28;19917;-69
2021/07/25 02:55:03;;;;;;;;;;;;;;;25.21;57.46;99329.81;2068407;28;19986;-70
2021/07/25 02:56:04;;;;;;;;;;;;;;;25.21;57.31;99321.53;2069513;28;19917;-70
2021/07/25 02:57:04;;;;;;;;;;;;;;;25.22;57.42;99325.13;2069991;28;19921;-70
2021/07/25 02:58:04;;;;;;;;;;;;;;;25.21;57.26;99329.81;2063074;28;19921;-70
2021/07/25 02:59:06;;;;;;;;;;;;;;;25.21;57.25;99329.81;2067534;28;19951;-70
2021/07/25 03:00:08;;;;;;;;;;;;;;;25.21;57.21;99327.03;2065469;28;20365;-70
2021/07/25 03:01:11;;;;;;;;;;;;;;;25.20;57.46;99322.56;2071234;28;19921;-70
2021/07/25 03:02:11;;;;;;;;;;;;;;;25.20;57.40;99328.06;2067459;28;19925;-70
2021/07/25 03:03:12;;;;;;;;;;;;;;;25.20;57.47;99325.31;2069582;28;19917;-70
2021/07/25 03:04:12;;;;;;;;;;;;;;;25.21;57.34;99334.47;2064556;28;20292;-70
2021/07/25 03:05:13;;;;;;;;;;;;;;;25.21;57.50;99329.81;2069303;28;19925;-70
2021/07/25 03:06:13;;;;;;;;;;;;;;;25.21;57.27;99329.81;2070316;28;20367;-70
2021/07/25 03:07:14;;;;;;;;;;;;;;;25.20;57.44;99330.84;2068467;28;19975;-70
2021/07/25 03:08:14;;;;;;;;;;;;;;;25.21;57.59;99329.81;2067313;28;19966;-70
2021/07/25 03:09:14;;;;;;;;;;;;;;;25.20;57.33;99333.59;2069341;28;20003;-70
2021/07/25 03:10:15;;;;;;;;;;;;;;;25.21;57.39;99328.97;2067236;28;20024;-70
2021/07/25 03:11:15;;;;;;;;;;;;;;;25.20;57.47;99330.84;2069162;28;19952;-70
2021/07/25 03:12:15;;;;;;;;;;;;;;;25.20;57.50;99333.59;2065371;28;20016;-70
2021/07/25 03:13:16;;;;;;;;;;;;;;;25.20;57.25;99333.59;2070486;28;19957;-70
2021/07/25 03:14:16;;;;;;;;;;;;;;;25.20;57.52;99330.84;2068298;28;19917;-70
2021/07/25 03:15:17;;;;;;;;;;;;;;;25.20;57.46;99333.59;2068801;28;20392;-70
2021/07/25 03:16:17;;;;;;;;;;;;;;;25.20;57.27;99339.13;2068156;28;19944;-69
2021/07/25 03:17:17;;;;;;;;;;;;;;;25.19;57.50;99334.66;2067936;28;20020;-69
2021/07/25 03:18:18;;;;;;;;;;;;;;;25.20;57.44;99339.13;2066066;28;20008;-69
2021/07/25 03:19:18;;;;;;;;;;;;;;;25.20;57.50;99336.34;2063039;28;19922;-69
2021/07/25 03:20:18;;;;;;;;;;;;;;;25.20;57.52;99338.28;2057438;28;19921;-71
2021/07/25 03:21:19;;;;;;;;;;;;;;;25.19;57.52;99337.44;2064477;28;19955;-69
2021/07/25 03:22:20;;;;;;;;;;;;;;;25.19;57.37;99340.19;2067545;28;19921;-69
2021/07/25 03:23:20;;;;;;;;;;;;;;;25.20;57.30;99338.28;2059449;28;20495;-69
2021/07/25 03:24:21;;;;;;;;;;;;;;;25.19;57.44;99337.44;2066655;28;20340;-69
2021/07/25 03:25:21;;;;;;;;;;;;;;;25.19;57.29;99342.94;2069345;28;19925;-69
2021/07/25 03:26:21;;;;;;;;;;;;;;;25.19;57.44;99340.19;2065658;28;20647;-69
2021/07/25 03:27:22;;;;;;;;;;;;;;;25.19;57.27;99342.94;2067956;28;19925;-69
2021/07/25 03:28:22;;;;;;;;;;;;;;;25.19;57.40;99342.94;2068187;28;19921;-69
2021/07/25 03:29:22;;;;;;;;;;;;;;;25.19;57.54;99342.94;2068723;28;19921;-69
2021/07/25 03:30:22;;;;;;;;;;;;;;;25.18;57.41;99341.22;2067019;28;19917;-68
2021/07/25 03:31:23;;;;;;;;;;;;;;;25.17;57.43;99336.78;2066426;28;20304;-69
2021/07/25 03:32:23;;;;;;;;;;;;;;;25.17;57.23;99334.03;2068198;28;20319;-69
2021/07/25 03:33:23;;;;;;;;;;;;;;;25.17;57.36;99342.28;2067953;28;19983;-68
2021/07/25 03:34:24;;;;;;;;;;;;;;;25.17;57.40;99341.44;2070587;28;20003;-68
2021/07/25 03:35:24;;;;;;;;;;;;;;;25.17;57.51;99339.53;2069319;28;19913;-68
2021/07/25 03:36:26;;;;;;;;;;;;;;;25.17;57.44;99342.28;2070099;28;19971;-68
2021/07/25 03:37:26;;;;;;;;;;;;;;;25.17;57.36;99334.03;2068415;28;19928;-68
2021/07/25 03:38:27;;;;;;;;;;;;;;;25.17;57.44;99342.28;2069117;28;19931;-68
2021/07/25 03:39:27;;;;;;;;;;;;;;;25.17;57.42;99339.53;2069372;28;19905;-68
2021/07/25 03:40:29;;;;;;;;;;;;;;;25.17;57.51;99342.28;2069460;28;19921;-68
2021/07/25 03:41:30;;;;;;;;;;;;;;;25.17;57.36;99339.53;2067544;28;19952;-68
2021/07/25 03:42:30;;;;;;;;;;;;;;;25.17;57.46;99339.53;2067023;28;19978;-68
2021/07/25 03:43:30;;;;;;;;;;;;;;;25.17;57.23;99336.78;2068631;28;20690;-68
2021/07/25 03:44:32;;;;;;;;;;;;;;;25.17;57.40;99338.69;2068909;28;19931;-71
2021/07/25 03:45:33;;;;;;;;;;;;;;;25.16;57.32;99343.34;2067379;28;20003;-71
2021/07/25 03:46:34;;;;;;;;;;;;;;;25.16;57.32;99348.84;2066879;28;19917;-71
2021/07/25 03:47:34;;;;;;;;;;;;;;;25.16;57.23;99343.34;2069110;28;19921;-71
2021/07/25 03:48:35;;;;;;;;;;;;;;;25.16;57.29;99336.94;2066584;28;20447;-71
2021/07/25 03:49:36;;;;;;;;;;;;;;;25.16;57.33;99346.09;2066734;28;19967;-71
2021/07/25 03:50:39;;;;;;;;;;;;;;;25.15;57.33;99336.09;2064475;28;19917;-71
2021/07/25 03:51:39;;;;;;;;;;;;;;;25.16;57.43;99342.47;2066548;28;19969;-71
2021/07/25 03:52:39;;;;;;;;;;;;;;;25.15;57.39;99340.78;2069781;28;19928;-71
2021/07/25 03:53:40;;;;;;;;;;;;;;;25.15;57.26;99347.13;2067344;28;19921;-71
2021/07/25 03:54:42;;;;;;;;;;;;;;;25.15;57.30;99336.09;2068736;28;19956;-71
2021/07/25 03:55:44;;;;;;;;;;;;;;;25.15;57.39;99341.63;2076821;28;20422;-71
2021/07/25 03:56:44;;;;;;;;;;;;;;;25.15;57.43;99341.63;2073895;28;19993;-71
2021/07/25 03:57:45;;;;;;;;;;;;;;;25.15;57.24;99347.13;2074273;28;19924;-71
2021/07/25 03:58:45;;;;;;;;;;;;;;;25.15;57.39;99344.38;2067056;28;20719;-72
2021/07/25 03:59:46;;;;;;;;;;;;;;;25.14;57.22;99345.44;2068840;28;20008;-72
2021/07/25 04:00:46;;;;;;;;;;;;;;;25.16;57.32;99348.84;2065375;28;20027;-72
2021/07/25 04:01:47;;;;;;;;;;;;;;;25.15;57.25;99349.88;2061152;28;19977;-72
2021/07/25 04:02:47;;;;;;;;;;;;;;;25.15;57.13;99349.03;2068508;28;20035;-72
2021/07/25 04:03:47;;;;;;;;;;;;;;;25.15;57.31;99352.66;2066308;28;20408;-70
2021/07/25 04:04:48;;;;;;;;;;;;;;;25.15;57.38;99351.81;2069985;28;19924;-72
2021/07/25 04:05:48;;;;;;;;;;;;;;;25.14;57.22;99350.97;2068496;28;19924;-73
2021/07/25 04:06:48;;;;;;;;;;;;;;;25.15;57.41;99354.56;2071648;28;19967;-69
2021/07/25 04:07:49;;;;;;;;;;;;;;;25.15;57.43;99360.91;2072074;28;19960;-71
2021/07/25 04:08:49;;;;;;;;;;;;;;;25.15;57.28;99358.16;2064264;28;20872;-71
2021/07/25 04:09:49;;;;;;;;;;;;;;;25.15;57.33;99357.31;2069193;28;19947;-71
2021/07/25 04:10:50;;;;;;;;;;;;;;;25.15;57.32;99358.16;2066730;28;20168;-70
2021/07/25 04:11:54;;;;;;;;;;;;;;;25.14;57.21;99356.47;2066385;28;19921;-70
2021/07/25 04:12:55;;;;;;;;;;;;;;;25.14;57.47;99356.47;2068564;28;19963;-70
2021/07/25 04:13:55;;;;;;;;;;;;;;;25.14;57.40;99356.47;2066560;28;19925;-70
2021/07/25 04:14:55;;;;;;;;;;;;;;;25.15;57.38;99357.31;2064737;28;19921;-69
2021/07/25 04:15:56;;;;;;;;;;;;;;;25.15;57.53;99362.84;2066582;28;19983;-70
2021/07/25 04:16:56;;;;;;;;;;;;;;;25.14;57.63;99356.47;2066292;28;20378;-71
2021/07/25 04:17:56;;;;;;;;;;;;;;;25.14;57.47;99356.47;2066631;28;19924;-71
2021/07/25 04:18:57;;;;;;;;;;;;;;;25.14;57.72;99355.63;2065872;28;19952;-71
2021/07/25 04:19:57;;;;;;;;;;;;;;;25.14;57.79;99355.63;2064051;28;19949;-72
2021/07/25 04:20:57;;;;;;;;;;;;;;;25.14;57.61;99362.00;2066923;28;19917;-71
2021/07/25 04:22:00;;;;;;;;;;;;;;;25.14;57.63;99356.47;2067136;28;19917;-71
2021/07/25 04:23:02;;;;;;;;;;;;;;;25.14;57.69;99356.47;2068474;28;19913;-71
2021/07/25 04:24:02;;;;;;;;;;;;;;;25.13;57.69;99353.91;2075528;28;19925;-71
2021/07/25 04:25:03;;;;;;;;;;;;;;;25.12;57.62;99358.59;2073847;28;20490;-71
2021/07/25 04:26:04;;;;;;;;;;;;;;;25.13;57.64;99362.19;2067736;28;19919;-71
2021/07/25 04:27:04;;;;;;;;;;;;;;;25.13;57.53;99354.75;2067570;28;19921;-71
2021/07/25 04:28:05;;;;;;;;;;;;;;;25.13;57.54;99357.50;2066304;28;19927;-71
2021/07/25 04:29:05;;;;;;;;;;;;;;;25.13;57.61;99354.75;2068335;28;19924;-71
2021/07/25 04:30:06;;;;;;;;;;;;;;;25.13;57.56;99360.28;2066717;28;19929;-71
2021/07/25 04:31:06;;;;;;;;;;;;;;;25.12;57.62;99358.59;2066815;28;19917;-71
2021/07/25 04:32:07;;;;;;;;;;;;;;;25.12;57.56;99358.59;2068347;28;19924;-71
2021/07/25 04:33:08;;;;;;;;;;;;;;;25.12;57.47;99358.59;2066137;28;19917;-71
2021/07/25 04:34:08;;;;;;;;;;;;;;;25.12;57.71;99366.84;2068061;28;19925;-71
2021/07/25 04:35:09;;;;;;;;;;;;;;;25.12;57.56;99366.84;2066706;28;19917;-71
2021/07/25 04:36:23;;;;;;;;;;;;;;;25.12;57.69;99369.63;2066102;28;21490;-70
2021/07/25 04:37:27;;;;;;;;;;;;;;;25.12;57.56;99369.63;2063366;28;20372;-70
2021/07/25 04:38:27;;;;;;;;;;;;;;;25.12;57.54;99366.84;2065949;28;19920;-71
2021/07/25 04:39:27;;;;;;;;;;;;;;;25.12;57.53;99369.63;2065609;28;20028;-71
2021/07/25 04:40:28;;;;;;;;;;;;;;;25.12;57.55;99372.38;2067669;28;19932;-70
2021/07/25 04:41:32;;;;;;;;;;;;;;;25.13;57.46;99367.69;2065327;28;19928;-70
2021/07/25 04:42:35;;;;;;;;;;;;;;;25.12;57.38;99368.78;2066826;28;19956;-71
2021/07/25 04:43:36;;;;;;;;;;;;;;;25.11;57.55;99362.41;2068835;28;20016;-71
2021/07/25 04:44:39;;;;;;;;;;;;;;;25.11;57.51;99365.16;2063524;28;19917;-70
2021/07/25 04:45:50;;;;;;;;;;;;;;;25.11;57.56;99362.41;2067473;28;20021;-70
2021/07/25 04:46:52;;;;;;;;;;;;;;;25.11;57.56;99362.41;2065578;28;19932;-70
2021/07/25 04:47:54;;;;;;;;;;;;;;;25.11;57.62;99361.53;2066002;28;19959;-70
2021/07/25 04:48:59;;;;;;;;;;;;;;;25.11;57.40;99362.41;2070014;28;20486;-70
2021/07/25 04:50:06;;;;;;;;;;;;;;;25.11;57.38;99361.53;2070806;28;20291;-70
2021/07/25 04:51:10;;;;;;;;;;;;;;;25.10;57.59;99366.22;2071504;28;19921;-70
2021/07/25 04:52:11;;;;;;;;;;;;;;;25.11;57.42;99362.41;2074903;28;20324;-70
2021/07/25 04:53:20;;;;;;;;;;;;;;;25.11;57.58;99364.28;2068489;28;20344;-70
2021/07/25 04:54:20;;;;;;;;;;;;;;;25.10;57.47;99360.69;2069606;28;20099;-70
2021/07/25 04:55:24;;;;;;;;;;;;;;;25.10;57.48;99368.97;2069921;28;19909;-69
2021/07/25 04:56:25;;;;;;;;;;;;;;;25.09;57.60;99364.53;2070499;28;19913;-69
2021/07/25 04:57:27;;;;;;;;;;;;;;;25.09;57.58;99370.03;2066394;28;19925;-70
2021/07/25 04:58:49;;;;;;;;;;;;;;;25.10;57.65;99363.44;2068569;28;19924;-70
2021/07/25 04:59:51;;;;;;;;;;;;;;;25.10;57.34;99373.63;2066020;28;19927;-70
2021/07/25 05:00:53;;;;;;;;;;;;;;;25.09;57.53;99370.03;2068115;28;20391;-70
2021/07/25 05:01:59;;;;;;;;;;;;;;;25.09;57.39;99370.03;2068181;28;19935;-70
2021/07/25 05:03:05;;;;;;;;;;;;;;;25.08;57.47;99373.84;2071218;28;20342;-70
2021/07/25 05:04:06;;;;;;;;;;;;;;;25.10;57.47;99377.25;2068686;28;19917;-68
2021/07/25 05:05:07;;;;;;;;;;;;;;;25.09;57.36;99381.06;2070730;28;19918;-69
2021/07/25 05:06:12;;;;;;;;;;;;;;;25.09;57.46;99375.56;2077640;28;19913;-69
2021/07/25 05:07:12;;;;;;;;;;;;;;;25.08;57.49;99373.84;2078794;28;20366;-69
2021/07/25 05:08:13;;;;;;;;;;;;;;;25.08;57.54;99376.59;2077804;28;19913;-69
2021/07/25 05:09:13;;;;;;;;;;;;;;;25.08;57.54;99387.63;2077516;28;19924;-69
2021/07/25 05:10:14;;;;;;;;;;;;;;;25.09;57.50;99381.06;2076200;28;20372;-69
2021/07/25 05:11:17;;;;;;;;;;;;;;;25.08;57.36;99373.84;2077290;28;19913;-70
2021/07/25 05:12:19;;;;;;;;;;;;;;;25.09;57.32;99380.22;2075001;28;19917;-70
2021/07/25 05:13:24;;;;;;;;;;;;;;;25.08;57.45;99379.34;2076290;28;20471;-69
2021/07/25 05:14:35;;;;;;;;;;;;;;;25.08;57.43;99379.34;2076677;28;19913;-69
2021/07/25 05:15:39;;;;;;;;;;;;;;;25.08;57.39;99375.75;2084457;28;20187;-70
2021/07/25 05:16:40;;;;;;;;;;;;;;;25.09;57.56;99378.31;2078088;28;19967;-70
2021/07/25 05:17:41;;;;;;;;;;;;;;;25.08;57.46;99373.84;2071510;28;19913;-70
2021/07/25 05:18:45;;;;;;;;;;;;;;;25.08;57.30;99376.59;2078542;28;20396;-70
2021/07/25 05:19:48;;;;;;;;;;;;;;;25.07;57.38;99380.41;2077416;28;19920;-70